createdAt,value
2022-10-11T00:02:59.754Z,5.40
2022-10-11T00:06:03.785Z,5.00
2022-10-11T00:09:07.745Z,4.80
2022-10-11T00:12:10.832Z,4.80
2022-10-11T00:15:16.875Z,4.20
2022-10-11T00:18:19.947Z,4.70
2022-10-11T00:21:23.127Z,4.60
2022-10-11T00:24:26.085Z,4.20
2022-10-11T00:27:28.935Z,4.70
2022-10-11T00:30:32.431Z,4.30
2022-10-11T00:33:35.734Z,3.90
2022-10-11T00:36:38.875Z,4.00
2022-10-11T00:39:41.683Z,3.70
2022-10-11T00:42:44.791Z,3.80
2022-10-11T00:45:56.457Z,3.70
2022-10-11T00:49:13.632Z,4.50
2022-10-11T00:52:42.084Z,3.60
2022-10-11T00:55:54.224Z,4.30
2022-10-11T00:59:00.012Z,3.50
2022-10-11T01:02:04.879Z,4.30
2022-10-11T01:05:28.648Z,3.80
2022-10-11T01:08:32.724Z,4.00
2022-10-11T01:11:37.745Z,3.80
2022-10-11T01:15:01.880Z,4.30
2022-10-11T01:18:22.183Z,4.00
2022-10-11T01:21:47.008Z,4.00
2022-10-11T01:25:00.629Z,4.10
2022-10-11T01:28:24.964Z,3.80
2022-10-11T01:31:38.693Z,4.00
2022-10-11T01:35:01.762Z,3.30
2022-10-11T01:38:10.270Z,3.70
2022-10-11T01:41:24.058Z,3.70
2022-10-11T01:44:27.866Z,3.70
2022-10-11T01:47:31.024Z,3.40
2022-10-11T01:50:56.956Z,3.30
2022-10-11T01:54:05.882Z,3.30
2022-10-11T01:57:33.748Z,3.40
2022-10-11T02:01:04.198Z,3.50
2022-10-11T02:04:24.996Z,3.70
2022-10-11T02:07:41.039Z,4.20
2022-10-11T02:11:04.090Z,3.20
2022-10-11T02:14:11.628Z,3.50
2022-10-11T02:17:19.384Z,3.40
2022-10-11T02:20:26.251Z,3.50
2022-10-11T02:23:44.007Z,3.40
2022-10-11T02:26:54.659Z,3.60
2022-10-11T02:30:00.848Z,3.30
2022-10-11T02:33:08.417Z,3.40
2022-10-11T02:36:17.371Z,3.60
2022-10-11T02:39:34.455Z,3.90
2022-10-11T02:42:44.705Z,3.90
2022-10-11T02:45:55.900Z,4.10
2022-10-11T02:49:00.699Z,4.20
2022-10-11T02:52:05.289Z,4.40
2022-10-11T02:55:08.704Z,4.50
2022-10-11T02:58:11.495Z,4.10
2022-10-11T03:01:14.880Z,4.40
2022-10-11T03:04:17.716Z,4.80
2022-10-11T03:07:20.493Z,4.70
2022-10-11T03:10:23.325Z,3.90
2022-10-11T03:13:26.184Z,4.00
2022-10-11T03:16:29.064Z,3.60
2022-10-11T03:19:32.837Z,3.90
2022-10-11T03:22:35.680Z,4.40
2022-10-11T03:25:38.785Z,3.60
2022-10-11T03:28:41.707Z,3.80
2022-10-11T03:31:44.581Z,4.10
2022-10-11T03:34:47.416Z,3.60
2022-10-11T03:37:51.492Z,4.10
2022-10-11T03:40:54.827Z,3.80
2022-10-11T03:43:57.611Z,4.00
2022-10-11T03:47:00.374Z,3.90
2022-10-11T03:50:07.578Z,3.60
2022-10-11T03:53:10.483Z,4.30
2022-10-11T03:56:13.579Z,4.00
2022-10-11T03:59:16.942Z,4.60
2022-10-11T04:02:20.081Z,4.60
2022-10-11T04:05:23.023Z,5.00
2022-10-11T04:08:26.241Z,4.70
2022-10-11T04:11:29.056Z,5.20
2022-10-11T04:14:31.911Z,5.70
2022-10-11T04:17:34.821Z,5.10
2022-10-11T04:20:37.797Z,5.20
2022-10-11T04:23:40.595Z,5.10
2022-10-11T04:26:43.341Z,5.10
2022-10-11T04:29:46.122Z,5.40
2022-10-11T04:32:49.029Z,5.00
2022-10-11T04:35:56.213Z,4.70
2022-10-11T04:38:59.113Z,5.00
2022-10-11T04:42:01.904Z,5.10
2022-10-11T04:45:05.682Z,5.60
2022-10-11T04:48:08.743Z,5.80
2022-10-11T04:51:11.575Z,5.40
2022-10-11T04:54:14.628Z,5.10
2022-10-11T04:57:17.411Z,5.10
2022-10-11T05:00:20.319Z,5.10
2022-10-11T05:03:23.988Z,5.70
2022-10-11T05:06:26.856Z,5.30
2022-10-11T05:09:29.742Z,5.10
2022-10-11T05:12:32.579Z,5.20
2022-10-11T05:15:35.405Z,5.20
2022-10-11T05:18:39.240Z,6.00
2022-10-11T05:21:42.117Z,6.70
2022-10-11T05:24:45.005Z,6.50
2022-10-11T05:27:48.017Z,6.90
2022-10-11T05:30:50.854Z,7.00
2022-10-11T05:33:53.722Z,6.60
2022-10-11T05:36:57.216Z,6.30
2022-10-11T05:40:00.071Z,6.10
2022-10-11T05:43:02.908Z,6.10
2022-10-11T05:46:06.202Z,6.60
2022-10-11T05:49:09.644Z,6.40
2022-10-11T05:52:13.685Z,6.60
2022-10-11T05:55:16.549Z,6.50
2022-10-11T05:58:19.455Z,7.50
2022-10-11T06:01:25.082Z,9.10
2022-10-11T06:04:28.172Z,10.30
2022-10-11T06:07:31.094Z,9.10
2022-10-11T06:10:34.920Z,8.20
2022-10-11T06:13:37.761Z,7.80
2022-10-11T06:16:40.736Z,8.80
2022-10-11T06:19:46.370Z,8.10
2022-10-11T06:22:49.263Z,8.40
2022-10-11T06:26:05.961Z,7.90
2022-10-11T06:29:09.902Z,8.20
2022-10-11T06:32:13.430Z,8.70
2022-10-11T06:35:16.358Z,9.50
2022-10-11T06:38:19.250Z,8.60
2022-10-11T06:41:27.464Z,9.30
2022-10-11T06:44:30.338Z,8.30
2022-10-11T06:47:33.261Z,8.30
2022-10-11T06:50:58.643Z,8.10
2022-10-11T06:54:01.949Z,8.90
2022-10-11T06:57:04.883Z,8.70
2022-10-11T07:00:12.514Z,9.50
2022-10-11T07:03:15.645Z,10.10
2022-10-11T07:06:24.549Z,12.20
2022-10-11T07:09:27.371Z,11.90
2022-10-11T07:12:30.162Z,11.70
2022-10-11T07:15:38.151Z,11.30
2022-10-11T07:18:41.001Z,11.40
2022-10-11T07:21:43.831Z,13.50
2022-10-11T07:24:49.100Z,12.20
2022-10-11T07:27:51.897Z,10.80
2022-10-11T07:30:54.791Z,11.50
2022-10-11T07:33:57.689Z,11.40
2022-10-11T07:37:00.527Z,12.30
2022-10-11T07:40:03.901Z,11.60
2022-10-11T07:43:06.726Z,10.10
2022-10-11T07:46:11.303Z,8.90
2022-10-11T07:49:14.206Z,8.20
2022-10-11T07:52:17.093Z,8.60
2022-10-11T07:55:20.291Z,7.80
2022-10-11T07:58:23.082Z,7.70
2022-10-11T08:01:27.559Z,7.70
2022-10-11T08:04:30.435Z,8.40
2022-10-11T08:07:33.369Z,8.30
2022-10-11T08:10:54.207Z,8.30
2022-10-11T08:13:58.229Z,8.80
2022-10-11T08:17:02.444Z,9.20
2022-10-11T08:20:05.680Z,9.50
2022-10-11T08:23:09.627Z,8.90
2022-10-11T08:26:12.554Z,9.50
2022-10-11T08:29:15.408Z,9.30
2022-10-11T08:32:18.272Z,15.00
2022-10-11T08:35:21.992Z,10.10
2022-10-11T08:38:25.386Z,7.80
2022-10-11T08:41:42.330Z,8.30
2022-10-11T08:45:16.185Z,8.20
2022-10-11T08:48:30.101Z,9.10
2022-10-11T08:52:00.150Z,8.30
2022-10-11T08:55:34.829Z,8.30
2022-10-11T08:58:44.531Z,8.70
2022-10-11T09:01:54.501Z,8.50
2022-10-11T09:04:57.499Z,8.40
2022-10-11T09:08:09.043Z,7.60
2022-10-11T09:11:35.761Z,8.10
2022-10-11T09:15:16.675Z,8.30
2022-10-11T09:18:44.933Z,8.00
2022-10-11T09:22:17.067Z,7.80
2022-10-11T09:25:29.827Z,8.30
2022-10-11T09:28:41.889Z,9.20
2022-10-11T09:31:49.167Z,8.40
2022-10-11T09:35:11.225Z,8.20
2022-10-11T09:38:29.599Z,8.20
2022-10-11T09:41:39.569Z,7.90
2022-10-11T09:44:48.263Z,8.10
2022-10-11T09:47:53.676Z,7.90
2022-10-11T09:51:05.263Z,7.40
2022-10-11T09:54:10.521Z,8.00
2022-10-11T09:57:35.947Z,6.70
2022-10-11T10:00:38.927Z,5.90
2022-10-11T10:03:44.098Z,6.80
2022-10-11T10:06:46.968Z,6.10
2022-10-11T10:09:50.591Z,6.10
2022-10-11T10:12:56.231Z,5.00
2022-10-11T10:15:59.530Z,5.80
2022-10-11T10:19:06.489Z,5.60
2022-10-11T10:22:22.818Z,5.60
2022-10-11T10:25:35.952Z,5.10
2022-10-11T10:29:03.851Z,5.90
2022-10-11T10:32:20.921Z,5.70
2022-10-11T10:35:31.571Z,4.70
2022-10-11T10:38:40.446Z,4.30
2022-10-11T10:41:43.304Z,4.40
2022-10-11T10:44:53.100Z,4.60
2022-10-11T10:48:26.004Z,4.00
2022-10-11T10:51:31.999Z,4.00
2022-10-11T10:54:49.229Z,4.00
2022-10-11T10:58:19.983Z,4.30
2022-10-11T11:01:26.608Z,4.50
2022-10-11T11:04:35.074Z,4.20
2022-10-11T11:07:50.179Z,3.40
2022-10-11T11:11:01.034Z,2.90
2022-10-11T11:14:21.669Z,2.70
2022-10-11T11:17:52.158Z,2.70
2022-10-11T11:21:21.052Z,3.30
2022-10-11T11:25:01.558Z,3.30
2022-10-11T11:28:29.603Z,3.70
2022-10-11T11:31:51.423Z,3.30
2022-10-11T11:35:02.219Z,3.20
2022-10-11T11:38:27.137Z,2.80
2022-10-11T11:41:40.758Z,3.10
2022-10-11T11:44:46.883Z,3.00
2022-10-11T11:47:56.171Z,2.60
2022-10-11T11:51:08.916Z,2.80
2022-10-11T11:54:32.393Z,3.00
2022-10-11T11:58:07.575Z,2.60
2022-10-11T12:01:17.903Z,2.40
2022-10-11T12:04:28.583Z,2.50
2022-10-11T12:07:31.539Z,2.60
2022-10-11T12:10:49.569Z,2.10
2022-10-11T12:13:54.019Z,2.20
2022-10-11T12:17:20.166Z,2.40
2022-10-11T12:20:24.947Z,2.10
2022-10-11T12:23:30.808Z,2.20
2022-10-11T12:26:41.564Z,2.30
2022-10-11T12:29:48.412Z,2.20
2022-10-11T12:33:02.827Z,2.40
2022-10-11T12:36:20.653Z,1.90
2022-10-11T12:39:23.985Z,2.30
2022-10-11T12:42:37.009Z,2.00
2022-10-11T12:45:41.735Z,2.80
2022-10-11T12:49:14.186Z,1.90
2022-10-11T12:52:33.720Z,2.20
2022-10-11T12:56:00.835Z,1.90
2022-10-11T12:59:06.973Z,2.10
2022-10-11T13:02:38.832Z,2.10
2022-10-11T13:05:45.223Z,2.20
2022-10-11T13:08:54.835Z,2.10
2022-10-11T13:12:18.614Z,1.70
2022-10-11T13:15:23.678Z,1.40
2022-10-11T13:18:27.125Z,1.60
2022-10-11T13:21:39.553Z,1.60
2022-10-11T13:24:42.837Z,1.50
2022-10-11T13:27:47.758Z,2.10
2022-10-11T13:30:56.325Z,1.90
2022-10-11T13:33:59.988Z,1.50
2022-10-11T13:37:03.101Z,1.60
2022-10-11T13:40:06.778Z,1.70
2022-10-11T13:43:09.899Z,1.50
2022-10-11T13:46:23.033Z,2.30
2022-10-11T13:49:37.308Z,1.90
2022-10-11T13:52:58.019Z,1.70
2022-10-11T13:56:05.033Z,1.60
2022-10-11T13:59:21.011Z,1.70
2022-10-11T14:02:25.944Z,1.80
2022-10-11T14:05:36.711Z,1.50
2022-10-11T14:08:46.747Z,1.40
2022-10-11T14:11:50.234Z,1.30
2022-10-11T14:14:53.138Z,1.50
2022-10-11T14:17:56.257Z,1.30
2022-10-11T14:21:23.582Z,1.30
2022-10-11T14:24:27.383Z,1.70
2022-10-11T14:27:30.664Z,1.70
2022-10-11T14:30:33.546Z,1.80
2022-10-11T14:33:37.359Z,1.90
2022-10-11T14:36:40.521Z,1.80
2022-10-11T14:39:43.582Z,1.70
2022-10-11T14:42:46.784Z,1.50
2022-10-11T14:45:49.880Z,1.40
2022-10-11T14:48:55.854Z,1.70
2022-10-11T14:51:59.474Z,2.00
2022-10-11T14:55:02.336Z,2.30
2022-10-11T14:58:06.330Z,2.60
2022-10-11T15:01:16.329Z,2.00
2022-10-11T15:04:21.239Z,2.50
2022-10-11T15:07:24.061Z,6.50
2022-10-11T15:10:31.463Z,2.50
2022-10-11T15:13:34.355Z,2.50
2022-10-11T15:16:37.330Z,2.30
2022-10-11T15:19:40.088Z,2.90
2022-10-11T15:22:42.886Z,3.20
2022-10-11T15:25:46.289Z,3.60
2022-10-11T15:28:50.859Z,3.40
2022-10-11T15:31:53.736Z,4.00
2022-10-11T15:34:56.572Z,4.00
2022-10-11T15:38:00.301Z,3.30
2022-10-11T15:41:04.432Z,3.40
2022-10-11T15:44:07.229Z,3.20
2022-10-11T15:47:10.956Z,4.00
2022-10-11T15:50:19.031Z,4.00
2022-10-11T15:53:26.501Z,5.00
2022-10-11T15:56:33.668Z,6.50
2022-10-11T15:59:37.354Z,6.40
2022-10-11T16:02:40.775Z,6.30
2022-10-11T16:05:44.594Z,6.50
2022-10-11T16:08:48.090Z,7.30
2022-10-11T16:11:51.000Z,8.20
2022-10-11T16:14:54.646Z,10.70
2022-10-11T16:17:58.226Z,12.90
2022-10-11T16:21:01.205Z,13.20
2022-10-11T16:24:04.854Z,19.90
2022-10-11T16:27:07.721Z,17.80
2022-10-11T16:30:16.899Z,17.40
2022-10-11T16:33:19.917Z,15.50
2022-10-11T16:36:32.590Z,14.40
2022-10-11T16:39:36.268Z,12.50
2022-10-11T16:42:39.471Z,11.80
2022-10-11T16:45:42.393Z,9.50
2022-10-11T16:48:45.347Z,8.40
2022-10-11T16:51:48.860Z,7.20
2022-10-11T16:54:51.876Z,6.90
2022-10-11T16:57:54.801Z,6.60
2022-10-11T17:00:57.801Z,5.40
2022-10-11T17:04:01.157Z,5.30
2022-10-11T17:07:05.866Z,4.30
2022-10-11T17:10:08.895Z,4.60
2022-10-11T17:13:12.214Z,4.80
2022-10-11T17:16:16.509Z,5.50
2022-10-11T17:19:19.333Z,5.10
2022-10-11T17:22:22.227Z,4.90
2022-10-11T17:25:25.300Z,6.20
2022-10-11T17:28:28.240Z,5.50
2022-10-11T17:31:31.561Z,4.10
2022-10-11T17:34:34.731Z,5.40
2022-10-11T17:37:37.595Z,5.50
2022-10-11T17:40:40.360Z,6.80
2022-10-11T17:43:43.484Z,6.80
2022-10-11T17:46:46.974Z,9.00
2022-10-11T17:49:49.962Z,11.40
2022-10-11T17:52:53.877Z,12.50
2022-10-11T17:55:59.812Z,19.10
2022-10-11T17:59:02.782Z,54.50
2022-10-11T18:02:06.343Z,62.10
2022-10-11T18:05:09.318Z,73.90
2022-10-11T18:08:12.720Z,87.60
2022-10-11T18:11:19.047Z,79.10
2022-10-11T18:14:22.045Z,74.80
2022-10-11T18:17:24.894Z,71.60
2022-10-11T18:20:28.451Z,63.50
2022-10-11T18:23:32.550Z,61.00
2022-10-11T18:26:35.427Z,59.70
2022-10-11T18:29:38.460Z,55.50
2022-10-11T18:32:41.462Z,54.00
2022-10-11T18:35:47.198Z,53.30
2022-10-11T18:38:54.505Z,50.00
2022-10-11T18:41:57.307Z,54.30
2022-10-11T18:45:00.097Z,57.80
2022-10-11T18:48:03.103Z,62.70
2022-10-11T18:51:08.953Z,59.80
2022-10-11T18:54:15.455Z,69.30
2022-10-11T18:57:21.458Z,65.80
2022-10-11T19:00:40.027Z,61.60
2022-10-11T19:03:45.847Z,62.90
2022-10-11T19:06:49.754Z,62.90
2022-10-11T19:09:53.232Z,69.80
2022-10-11T19:12:56.230Z,66.10
2022-10-11T19:16:11.128Z,64.50
2022-10-11T19:19:13.959Z,59.10
2022-10-11T19:22:16.988Z,48.60
2022-10-11T19:25:19.920Z,43.00
2022-10-11T19:28:22.753Z,46.20
2022-10-11T19:31:25.748Z,44.50
2022-10-11T19:34:30.033Z,44.50
2022-10-11T19:37:33.086Z,47.50
2022-10-11T19:40:39.478Z,46.10
2022-10-11T19:43:43.256Z,45.00
2022-10-11T19:46:53.483Z,41.40
2022-10-11T19:49:56.361Z,42.50
2022-10-11T19:52:59.179Z,45.60
2022-10-11T19:56:07.969Z,46.10
2022-10-11T19:59:12.071Z,41.60
2022-10-11T20:02:15.220Z,36.30
2022-10-11T20:05:18.113Z,34.50
2022-10-11T20:08:21.113Z,30.50
2022-10-11T20:11:24.887Z,31.40
2022-10-11T20:14:27.754Z,28.30
2022-10-11T20:17:56.791Z,30.60
2022-10-11T20:21:03.401Z,37.90
2022-10-11T20:24:08.509Z,40.00
2022-10-11T20:27:11.309Z,43.70
2022-10-11T20:30:14.791Z,42.60
2022-10-11T20:33:17.590Z,38.80
2022-10-11T20:36:22.020Z,39.70
2022-10-11T20:39:25.335Z,44.30
2022-10-11T20:42:29.965Z,47.00
2022-10-11T20:45:32.907Z,48.40
2022-10-11T20:48:37.072Z,51.90
2022-10-11T20:51:41.889Z,53.80
2022-10-11T20:54:44.756Z,58.20
2022-10-11T20:57:47.665Z,51.80
2022-10-11T21:00:50.590Z,51.40
2022-10-11T21:03:54.199Z,50.80
2022-10-11T21:06:57.072Z,44.50
2022-10-11T21:10:00.042Z,38.60
2022-10-11T21:13:03.280Z,34.40
2022-10-11T21:16:13.523Z,34.00
2022-10-11T21:19:16.403Z,32.30
2022-10-11T21:22:19.547Z,31.40
2022-10-11T21:25:22.340Z,31.10
2022-10-11T21:28:25.210Z,29.60
2022-10-11T21:31:33.601Z,33.40
2022-10-11T21:34:37.680Z,31.10
2022-10-11T21:37:40.483Z,29.50
2022-10-11T21:40:43.291Z,31.60
2022-10-11T21:43:47.311Z,29.80
2022-10-11T21:47:07.343Z,26.60
2022-10-11T21:50:10.566Z,26.20
2022-10-11T21:53:13.344Z,26.00
2022-10-11T21:56:16.310Z,26.50
2022-10-11T21:59:19.123Z,27.00
2022-10-11T22:02:21.904Z,25.50
2022-10-11T22:05:24.914Z,25.50
2022-10-11T22:08:27.688Z,26.40
2022-10-11T22:11:32.194Z,26.10
2022-10-11T22:14:35.314Z,25.70
2022-10-11T22:17:38.093Z,26.10
2022-10-11T22:20:40.982Z,25.60
2022-10-11T22:23:46.745Z,25.30
2022-10-11T22:26:49.523Z,25.50
2022-10-11T22:29:52.350Z,23.80
2022-10-11T22:32:55.152Z,24.00
2022-10-11T22:36:00.690Z,21.40
2022-10-11T22:39:07.844Z,21.10
2022-10-11T22:42:10.748Z,19.90
2022-10-11T22:45:13.636Z,20.90
2022-10-11T22:48:16.498Z,21.20
2022-10-11T22:51:19.586Z,20.50
2022-10-11T22:54:22.435Z,19.90
2022-10-11T22:57:25.229Z,21.10
2022-10-11T23:00:28.149Z,19.40
2022-10-11T23:03:31.036Z,20.50
2022-10-11T23:06:33.863Z,18.80
2022-10-11T23:09:36.692Z,18.50
2022-10-11T23:12:39.519Z,17.80
2022-10-11T23:15:42.656Z,17.70
2022-10-11T23:18:45.517Z,19.00
2022-10-11T23:21:48.496Z,18.80
2022-10-11T23:24:51.397Z,18.70
2022-10-11T23:27:54.219Z,18.00
2022-10-11T23:30:57.082Z,18.10
2022-10-11T23:33:59.911Z,15.20
2022-10-11T23:37:03.353Z,14.80
2022-10-11T23:40:06.883Z,16.30
2022-10-11T23:43:09.693Z,16.70
2022-10-11T23:46:12.544Z,18.70
2022-10-11T23:49:15.470Z,18.00
2022-10-11T23:52:18.440Z,19.70
2022-10-11T23:55:21.402Z,20.10
2022-10-11T23:58:24.186Z,19.50
